createdAt,value
2017-11-14T00:02:21.021Z,13.67
2017-11-14T00:04:49.358Z,15.57
2017-11-14T00:07:17.728Z,11.40
2017-11-14T00:09:47.003Z,19.93
2017-11-14T00:12:15.395Z,24.00
2017-11-14T00:14:43.778Z,16.90
2017-11-14T00:17:12.125Z,23.57
2017-11-14T00:19:41.061Z,15.03
2017-11-14T00:22:08.724Z,15.40
2017-11-14T00:24:37.150Z,18.10
2017-11-14T00:27:05.742Z,27.83
2017-11-14T00:29:34.113Z,17.27
2017-11-14T00:32:02.492Z,17.77
2017-11-14T00:34:31.344Z,17.30
2017-11-14T00:37:00.615Z,14.77
2017-11-14T00:39:29.228Z,15.27
2017-11-14T00:41:58.676Z,15.57
2017-11-14T00:44:27.199Z,17.00
2017-11-14T00:46:55.750Z,13.07
2017-11-14T00:49:24.930Z,12.93
2017-11-14T00:51:56.527Z,15.50
2017-11-14T00:54:24.886Z,18.90
2017-11-14T00:56:53.749Z,21.53
2017-11-14T00:59:22.096Z,15.00
2017-11-14T01:01:50.679Z,32.37
2017-11-14T01:04:19.028Z,16.27
2017-11-14T01:06:49.206Z,17.10
2017-11-14T01:09:17.574Z,15.37
2017-11-14T01:11:45.922Z,17.70
2017-11-14T01:14:14.284Z,16.07
2017-11-14T01:16:42.705Z,36.67
2017-11-14T01:19:11.282Z,12.07
2017-11-14T01:21:40.365Z,25.93
2017-11-14T01:24:09.534Z,12.80
2017-11-14T01:26:38.820Z,17.17
2017-11-14T01:29:07.390Z,17.17
2017-11-14T01:31:35.836Z,25.97
2017-11-14T01:34:03.974Z,21.77
2017-11-14T01:36:32.338Z,17.00
2017-11-14T01:39:01.001Z,10.90
2017-11-14T01:41:29.778Z,15.73
2017-11-14T01:43:58.881Z,16.00
2017-11-14T01:46:27.222Z,19.47
2017-11-14T01:48:55.846Z,16.83
2017-11-14T01:51:24.206Z,15.27
2017-11-14T01:53:53.399Z,17.60
2017-11-14T01:56:26.384Z,14.53
2017-11-14T01:58:55.708Z,18.17
2017-11-14T02:01:24.812Z,17.73
2017-11-14T02:03:54.382Z,14.40
2017-11-14T02:06:22.072Z,14.00
2017-11-14T02:08:51.217Z,16.23
2017-11-14T02:11:19.284Z,18.07
2017-11-14T02:13:48.497Z,21.13
2017-11-14T02:16:17.402Z,18.50
2017-11-14T02:18:45.847Z,17.53
2017-11-14T02:21:14.190Z,19.83
2017-11-14T02:23:42.221Z,17.63
2017-11-14T02:26:11.775Z,12.40
2017-11-14T02:28:42.029Z,22.53
2017-11-14T02:31:10.470Z,15.73
2017-11-14T02:33:38.578Z,16.43
2017-11-14T02:36:06.854Z,19.27
2017-11-14T02:38:35.504Z,20.57
2017-11-14T02:41:03.622Z,18.17
2017-11-14T02:43:32.132Z,16.80
2017-11-14T02:45:59.880Z,21.63
2017-11-14T02:48:28.810Z,18.77
2017-11-14T02:50:57.417Z,17.10
2017-11-14T02:53:25.686Z,20.33
2017-11-14T02:55:53.841Z,18.93
2017-11-14T02:58:22.974Z,18.77
2017-11-14T03:00:52.355Z,18.90
2017-11-14T03:03:20.753Z,19.00
2017-11-14T03:05:49.827Z,15.90
2017-11-14T03:08:18.200Z,20.10
2017-11-14T03:10:46.578Z,19.20
2017-11-14T03:13:15.169Z,23.40
2017-11-14T03:15:43.662Z,22.07
2017-11-14T03:18:12.023Z,17.70
2017-11-14T03:20:40.387Z,21.53
2017-11-14T03:23:08.410Z,17.93
2017-11-14T03:25:36.773Z,21.40
2017-11-14T03:28:04.774Z,18.23
2017-11-14T03:30:32.791Z,21.30
2017-11-14T03:33:01.449Z,16.30
2017-11-14T03:35:30.945Z,24.43
2017-11-14T03:37:59.527Z,25.83
2017-11-14T03:40:28.561Z,18.87
2017-11-14T03:42:57.101Z,21.67
2017-11-14T03:45:25.516Z,24.37
2017-11-14T03:47:54.095Z,24.60
2017-11-14T03:50:21.749Z,26.60
2017-11-14T03:52:50.463Z,23.93
2017-11-14T03:55:18.806Z,27.93
2017-11-14T03:57:47.171Z,21.67
2017-11-14T04:00:15.403Z,24.30
2017-11-14T04:02:44.209Z,25.47
2017-11-14T04:05:12.560Z,22.57
2017-11-14T04:07:40.964Z,25.23
2017-11-14T04:10:09.145Z,22.60
2017-11-14T04:12:37.226Z,27.10
2017-11-14T04:15:05.602Z,27.93
2017-11-14T04:17:33.965Z,33.13
2017-11-14T04:20:02.417Z,26.70
2017-11-14T04:22:30.762Z,24.57
2017-11-14T04:24:59.124Z,26.03
2017-11-14T04:27:27.479Z,26.83
2017-11-14T04:29:56.070Z,28.40
2017-11-14T04:32:24.684Z,30.10
2017-11-14T04:34:53.198Z,32.47
2017-11-14T04:37:21.640Z,32.33
2017-11-14T04:39:50.011Z,25.90
2017-11-14T04:42:18.396Z,31.27
2017-11-14T04:44:47.019Z,25.23
2017-11-14T04:47:15.380Z,31.43
2017-11-14T04:49:43.756Z,31.27
2017-11-14T04:52:12.163Z,29.57
2017-11-14T04:54:41.052Z,22.93
2017-11-14T04:57:09.608Z,30.50
2017-11-14T04:59:37.985Z,27.77
2017-11-14T05:02:06.463Z,25.47
2017-11-14T05:04:35.062Z,29.90
2017-11-14T05:07:03.518Z,31.73
2017-11-14T05:09:31.549Z,29.67
2017-11-14T05:11:59.908Z,31.10
2017-11-14T05:14:28.557Z,35.43
2017-11-14T05:16:57.183Z,27.73
2017-11-14T05:19:25.620Z,30.40
2017-11-14T05:21:54.081Z,32.40
2017-11-14T05:24:22.272Z,29.37
2017-11-14T05:26:50.641Z,25.13
2017-11-14T05:29:19.691Z,27.33
2017-11-14T05:31:48.092Z,22.87
2017-11-14T05:34:16.517Z,28.40
2017-11-14T05:36:44.915Z,27.43
2017-11-14T05:39:13.292Z,25.83
2017-11-14T05:41:41.671Z,22.37
2017-11-14T05:44:10.078Z,28.03
2017-11-14T05:46:38.662Z,29.63
2017-11-14T05:49:07.114Z,24.23
2017-11-14T05:51:35.485Z,22.60
2017-11-14T05:54:03.852Z,28.87
2017-11-14T05:56:33.428Z,28.17
2017-11-14T05:59:01.885Z,23.47
2017-11-14T06:01:30.245Z,25.90
2017-11-14T06:03:59.419Z,23.93
2017-11-14T06:06:27.797Z,26.90
2017-11-14T06:08:56.408Z,32.07
2017-11-14T06:11:24.792Z,24.77
2017-11-14T06:13:54.908Z,27.53
2017-11-14T06:16:23.282Z,28.43
2017-11-14T06:18:51.643Z,27.70
2017-11-14T06:21:20.283Z,33.07
2017-11-14T06:23:48.647Z,27.33
2017-11-14T06:26:17.306Z,30.67
2017-11-14T06:28:46.787Z,27.90
2017-11-14T06:31:15.677Z,27.70
2017-11-14T06:33:44.840Z,27.50
2017-11-14T06:36:13.448Z,37.47
2017-11-14T06:38:41.984Z,24.30
2017-11-14T06:41:10.438Z,29.40
2017-11-14T06:43:38.803Z,24.73
2017-11-14T06:46:07.686Z,22.70
2017-11-14T06:48:36.848Z,29.50
2017-11-14T06:51:05.854Z,29.97
2017-11-14T06:53:34.363Z,29.63
2017-11-14T06:56:03.698Z,32.63
2017-11-14T06:58:32.214Z,27.90
2017-11-14T07:01:00.594Z,25.67
2017-11-14T07:03:29.974Z,31.13
2017-11-14T07:05:58.533Z,30.17
2017-11-14T07:08:27.869Z,22.00
2017-11-14T07:10:56.441Z,26.63
2017-11-14T07:13:24.786Z,27.93
2017-11-14T07:15:53.156Z,29.37
2017-11-14T07:18:22.024Z,29.97
2017-11-14T07:20:50.397Z,26.17
2017-11-14T07:23:18.579Z,31.67
2017-11-14T07:25:46.773Z,34.07
2017-11-14T07:28:15.152Z,25.00
2017-11-14T07:30:43.528Z,27.43
2017-11-14T07:33:13.067Z,31.70
2017-11-14T07:35:41.714Z,27.07
2017-11-14T07:38:10.442Z,30.03
2017-11-14T07:40:39.025Z,32.53
2017-11-14T07:43:07.378Z,27.77
2017-11-14T07:45:35.904Z,36.47
2017-11-14T07:48:05.580Z,25.93
2017-11-14T07:50:33.962Z,29.87
2017-11-14T07:53:02.325Z,27.90
2017-11-14T07:55:30.711Z,27.73
2017-11-14T07:57:59.328Z,29.70
2017-11-14T08:00:27.695Z,27.13
2017-11-14T08:02:56.111Z,29.90
2017-11-14T08:05:24.731Z,26.90
2017-11-14T08:07:53.108Z,27.27
2017-11-14T08:10:21.474Z,31.77
2017-11-14T08:12:50.381Z,26.33
2017-11-14T08:15:18.825Z,24.07
2017-11-14T08:17:47.179Z,31.23
2017-11-14T08:20:15.889Z,31.07
2017-11-14T08:22:45.494Z,28.03
2017-11-14T08:25:14.006Z,28.67
2017-11-14T08:27:43.176Z,29.80
2017-11-14T08:30:11.765Z,29.97
2017-11-14T08:32:40.141Z,24.17
2017-11-14T08:35:09.316Z,29.97
2017-11-14T08:37:37.704Z,26.73
2017-11-14T08:40:06.080Z,29.17
2017-11-14T08:42:34.460Z,31.10
2017-11-14T08:45:02.828Z,31.53
2017-11-14T08:47:31.204Z,30.23
2017-11-14T08:49:59.777Z,25.13
2017-11-14T08:52:28.152Z,30.33
2017-11-14T08:54:56.595Z,30.90
2017-11-14T08:57:24.969Z,26.93
2017-11-14T08:59:53.336Z,25.77
2017-11-14T09:02:21.710Z,29.93
2017-11-14T09:04:50.073Z,32.70
2017-11-14T09:07:18.855Z,30.23
2017-11-14T09:09:46.863Z,23.50
2017-11-14T09:12:14.921Z,24.53
2017-11-14T09:14:42.623Z,33.27
2017-11-14T09:17:10.985Z,29.67
2017-11-14T09:19:38.650Z,27.63
2017-11-14T09:22:06.483Z,28.83
2017-11-14T09:24:35.331Z,28.47
2017-11-14T09:27:04.495Z,26.10
2017-11-14T09:29:32.494Z,29.90
2017-11-14T09:32:00.163Z,27.93
2017-11-14T09:34:27.880Z,48.63
2017-11-14T09:36:55.912Z,23.70
2017-11-14T09:39:24.046Z,30.23
2017-11-14T09:41:51.739Z,27.63
2017-11-14T09:44:19.396Z,23.30
2017-11-14T09:46:47.787Z,24.47
2017-11-14T09:49:16.223Z,40.73
2017-11-14T09:51:44.258Z,23.53
2017-11-14T09:54:11.957Z,21.70
2017-11-14T09:56:39.654Z,24.57
2017-11-14T09:59:07.684Z,29.73
2017-11-14T10:01:35.755Z,21.40
2017-11-14T10:04:03.425Z,26.97
2017-11-14T10:06:31.657Z,21.13
2017-11-14T10:09:00.069Z,24.03
2017-11-14T10:11:28.203Z,18.10
2017-11-14T10:13:57.307Z,21.83
2017-11-14T10:16:25.321Z,20.80
2017-11-14T10:18:53.343Z,22.67
2017-11-14T10:21:21.401Z,20.80
2017-11-14T10:23:49.428Z,24.40
2017-11-14T10:26:17.877Z,24.90
2017-11-14T10:28:46.251Z,20.10
2017-11-14T10:31:14.824Z,21.63
2017-11-14T10:33:43.497Z,18.50
2017-11-14T10:36:12.140Z,23.30
2017-11-14T10:38:39.807Z,18.63
2017-11-14T10:41:07.885Z,23.17
2017-11-14T10:43:35.894Z,22.97
2017-11-14T10:46:04.136Z,22.10
2017-11-14T10:48:31.821Z,21.70
2017-11-14T10:50:59.850Z,23.90
2017-11-14T10:53:27.615Z,16.17
2017-11-14T10:55:55.294Z,21.13
2017-11-14T10:58:22.993Z,20.27
2017-11-14T11:00:51.517Z,21.90
2017-11-14T11:03:19.242Z,20.63
2017-11-14T11:05:48.025Z,16.20
2017-11-14T11:08:16.027Z,20.90
2017-11-14T11:10:43.692Z,21.00
2017-11-14T11:13:11.372Z,18.20
2017-11-14T11:15:39.061Z,19.97
2017-11-14T11:18:06.729Z,24.50
2017-11-14T11:20:36.052Z,16.73
2017-11-14T11:23:03.826Z,20.50
2017-11-14T11:25:32.060Z,19.83
2017-11-14T11:28:00.523Z,14.07
2017-11-14T11:30:28.872Z,21.30
2017-11-14T11:32:56.977Z,18.10
2017-11-14T11:35:25.444Z,16.87
2017-11-14T11:37:54.258Z,17.30
2017-11-14T11:40:22.018Z,23.03
2017-11-14T11:42:50.013Z,23.50
2017-11-14T11:45:17.695Z,19.03
2017-11-14T11:47:45.452Z,22.13
2017-11-14T11:50:13.460Z,21.60
2017-11-14T11:52:41.983Z,16.70
2017-11-14T11:55:09.654Z,21.17
2017-11-14T11:57:37.335Z,15.33
2017-11-14T12:00:05.269Z,17.13
2017-11-14T12:02:32.943Z,19.70
2017-11-14T12:05:01.284Z,22.00
2017-11-14T12:07:28.983Z,18.00
2017-11-14T12:09:57.593Z,20.60
2017-11-14T12:12:26.038Z,20.50
2017-11-14T12:14:53.704Z,15.77
2017-11-14T12:17:24.709Z,15.60
2017-11-14T12:19:52.380Z,18.20
2017-11-14T12:22:21.639Z,21.90
2017-11-14T12:24:50.335Z,14.70
2017-11-14T12:27:18.355Z,13.27
2017-11-14T12:29:46.360Z,16.10
2017-11-14T12:32:15.141Z,16.53
2017-11-14T12:34:43.147Z,12.77
2017-11-14T12:37:11.477Z,16.03
2017-11-14T12:39:39.146Z,11.47
2017-11-14T12:42:07.147Z,12.87
2017-11-14T12:44:35.576Z,13.50
2017-11-14T12:47:05.082Z,18.10
2017-11-14T12:49:33.404Z,13.90
2017-11-14T12:52:01.737Z,15.47
2017-11-14T12:54:30.508Z,15.73
2017-11-14T12:56:58.849Z,12.27
2017-11-14T12:59:27.181Z,19.80
2017-11-14T13:01:55.964Z,21.93
2017-11-14T13:04:24.574Z,13.60
2017-11-14T13:06:53.256Z,16.90
2017-11-14T13:09:21.587Z,19.60
2017-11-14T13:11:50.723Z,15.23
2017-11-14T13:14:19.964Z,14.20
2017-11-14T13:16:48.296Z,19.90
2017-11-14T13:19:16.652Z,16.60
2017-11-14T13:21:45.151Z,20.37
2017-11-14T13:24:13.485Z,12.40
2017-11-14T13:26:41.932Z,17.53
2017-11-14T13:29:10.289Z,16.33
2017-11-14T13:31:38.630Z,20.57
2017-11-14T13:34:07.055Z,14.60
2017-11-14T13:36:35.416Z,13.20
2017-11-14T13:39:03.429Z,22.97
2017-11-14T13:41:31.786Z,20.00
2017-11-14T13:44:00.107Z,15.53
2017-11-14T13:46:28.299Z,14.80
2017-11-14T13:48:56.632Z,14.67
2017-11-14T13:51:25.742Z,17.60
2017-11-14T13:53:54.085Z,13.33
2017-11-14T13:56:22.412Z,17.20
2017-11-14T13:58:50.771Z,30.33
2017-11-14T14:01:19.581Z,22.40
2017-11-14T14:03:52.836Z,21.73
2017-11-14T14:06:25.069Z,15.47
2017-11-14T14:08:57.698Z,18.33
2017-11-14T14:11:30.019Z,18.77
2017-11-14T14:14:03.537Z,22.53
2017-11-14T14:16:36.032Z,17.33
2017-11-14T14:19:07.778Z,18.07
2017-11-14T14:21:40.983Z,24.40
2017-11-14T14:24:13.843Z,19.83
2017-11-14T14:26:46.392Z,19.37
2017-11-14T14:29:18.914Z,26.40
2017-11-14T14:31:51.789Z,20.03
2017-11-14T14:34:24.470Z,17.40
2017-11-14T14:36:57.627Z,17.07
2017-11-14T14:39:31.116Z,17.80
2017-11-14T14:42:04.725Z,16.77
2017-11-14T14:44:37.005Z,22.60
2017-11-14T14:47:09.440Z,24.27
2017-11-14T14:49:37.765Z,16.00
2017-11-14T14:52:06.110Z,17.73
2017-11-14T14:54:34.447Z,23.33
2017-11-14T14:57:02.783Z,20.20
2017-11-14T14:59:31.168Z,19.53
2017-11-14T15:01:59.498Z,25.90
2017-11-14T15:04:27.827Z,17.50
2017-11-14T15:06:56.157Z,18.90
2017-11-14T15:09:24.929Z,19.90
2017-11-14T15:11:53.251Z,18.57
2017-11-14T15:14:21.628Z,18.80
2017-11-14T15:16:49.974Z,14.30
2017-11-14T15:19:18.308Z,19.53
2017-11-14T15:21:46.696Z,17.37
2017-11-14T15:24:15.041Z,18.70
2017-11-14T15:26:43.578Z,20.30
2017-11-14T15:29:11.908Z,19.83
2017-11-14T15:31:40.235Z,14.20
2017-11-14T15:34:08.580Z,18.37
2017-11-14T15:36:36.924Z,19.17
2017-11-14T15:39:04.965Z,15.40
2017-11-14T15:41:34.065Z,17.33
2017-11-14T15:44:02.408Z,15.33
2017-11-14T15:46:30.731Z,15.20
2017-11-14T15:48:59.107Z,16.47
2017-11-14T15:51:27.473Z,12.70
2017-11-14T15:53:56.834Z,23.33
2017-11-14T15:56:25.452Z,12.47
2017-11-14T15:58:53.786Z,23.60
2017-11-14T16:01:22.118Z,15.03
2017-11-14T16:03:50.468Z,18.80
2017-11-14T16:06:18.798Z,16.03
2017-11-14T16:08:47.126Z,13.70
2017-11-14T16:11:15.503Z,16.60
2017-11-14T16:13:43.254Z,17.93
2017-11-14T16:16:11.595Z,16.80
2017-11-14T16:18:40.077Z,17.30
2017-11-14T16:21:08.080Z,12.90
2017-11-14T16:23:36.433Z,17.43
2017-11-14T16:26:04.976Z,19.60
2017-11-14T16:28:33.424Z,14.53
2017-11-14T16:31:01.516Z,23.50
2017-11-14T16:33:29.671Z,19.40
2017-11-14T16:35:58.012Z,15.50
2017-11-14T16:38:26.362Z,17.97
2017-11-14T16:40:56.422Z,14.10
2017-11-14T16:43:25.052Z,19.00
2017-11-14T16:45:53.377Z,17.83
2017-11-14T16:48:22.737Z,15.57
2017-11-14T16:50:51.271Z,16.70
2017-11-14T16:53:19.616Z,16.97
2017-11-14T16:55:47.972Z,15.83
2017-11-14T16:58:16.315Z,16.93
2017-11-14T17:00:44.314Z,18.23
2017-11-14T17:03:12.680Z,23.07
2017-11-14T17:05:40.999Z,24.60
2017-11-14T17:08:09.330Z,24.57
2017-11-14T17:10:37.114Z,22.07
2017-11-14T17:13:04.906Z,17.53
2017-11-14T17:15:33.243Z,13.47
2017-11-14T17:18:02.337Z,19.07
2017-11-14T17:20:30.693Z,21.43
2017-11-14T17:22:59.033Z,27.77
2017-11-14T17:25:30.713Z,13.63
2017-11-14T17:28:00.160Z,15.90
2017-11-14T17:30:31.139Z,14.43
2017-11-14T17:33:02.545Z,15.20
2017-11-14T17:35:30.888Z,14.83
2017-11-14T17:38:01.066Z,18.07
2017-11-14T17:40:32.071Z,18.50
2017-11-14T17:43:00.733Z,15.03
2017-11-14T17:45:32.820Z,12.93
2017-11-14T17:48:03.088Z,20.87
2017-11-14T17:50:34.815Z,16.80
2017-11-14T17:53:05.535Z,13.87
2017-11-14T17:55:35.887Z,16.07
2017-11-14T17:58:05.906Z,17.40
2017-11-14T18:00:36.462Z,19.93
2017-11-14T18:03:06.650Z,13.33
2017-11-14T18:21:41.297Z,22.90
2017-11-14T18:24:12.530Z,20.20
2017-11-14T18:26:40.879Z,23.30
2017-11-14T18:29:09.231Z,21.97
2017-11-14T18:31:37.593Z,13.33
2017-11-14T18:34:05.953Z,18.13
2017-11-14T18:36:34.283Z,17.90
2017-11-14T18:39:02.988Z,16.33
2017-11-14T18:41:31.323Z,16.83
2017-11-14T18:43:59.655Z,15.97
2017-11-14T18:46:28.216Z,21.37
2017-11-14T18:48:56.643Z,20.97
2017-11-14T18:51:25.065Z,21.00
2017-11-14T18:53:54.237Z,16.97
2017-11-14T18:56:22.755Z,16.40
2017-11-14T18:58:51.155Z,19.93
2017-11-14T19:01:19.612Z,19.10
2017-11-14T19:03:47.723Z,18.00
2017-11-14T19:06:16.087Z,13.93
2017-11-14T19:08:44.880Z,15.20
2017-11-14T19:11:13.214Z,15.67
2017-11-14T19:13:42.341Z,14.70
2017-11-14T19:16:10.705Z,16.90
2017-11-14T19:18:39.057Z,17.63
2017-11-14T19:21:07.430Z,17.20
2017-11-14T19:23:35.754Z,16.90
2017-11-14T19:26:04.868Z,14.80
2017-11-14T19:28:38.031Z,17.43
2017-11-14T19:31:06.403Z,24.87
2017-11-14T19:33:39.426Z,21.50
2017-11-14T19:36:10.532Z,19.53
2017-11-14T19:38:42.853Z,20.30
2017-11-14T19:41:14.986Z,16.77
2017-11-14T19:43:48.148Z,17.27
2017-11-14T19:46:20.857Z,42.73
2017-11-14T19:48:53.031Z,20.43
2017-11-14T19:51:25.203Z,20.37
2017-11-14T19:53:58.851Z,17.73
2017-11-14T19:56:32.279Z,27.50
2017-11-14T19:59:05.285Z,26.73
2017-11-14T20:01:38.054Z,20.27
2017-11-14T20:04:10.321Z,19.90
2017-11-14T20:06:44.531Z,28.97
2017-11-14T20:09:17.291Z,21.43
2017-11-14T20:11:48.020Z,22.90
2017-11-14T20:14:20.255Z,22.37
2017-11-14T20:16:48.420Z,23.83
2017-11-14T20:19:17.754Z,22.33
2017-11-14T20:21:46.022Z,15.30
2017-11-14T20:24:14.364Z,19.90
2017-11-14T20:26:47.133Z,25.20
2017-11-14T20:29:19.980Z,20.20
2017-11-14T20:31:48.340Z,22.03
2017-11-14T20:34:20.352Z,30.20
2017-11-14T20:36:54.017Z,20.67
2017-11-14T20:39:24.672Z,24.13
2017-11-14T20:41:56.453Z,21.20
2017-11-14T20:44:29.179Z,18.80
2017-11-14T20:47:02.165Z,16.57
2017-11-14T20:49:35.439Z,25.53
2017-11-14T20:52:04.107Z,28.70
2017-11-14T20:54:32.447Z,24.73
2017-11-14T20:57:01.437Z,27.67
2017-11-14T20:59:34.163Z,19.53
2017-11-14T21:02:06.865Z,22.90
2017-11-14T21:04:37.944Z,24.67
2017-11-14T21:07:10.981Z,25.13
2017-11-14T21:09:43.486Z,22.20
2017-11-14T21:12:17.206Z,23.77
2017-11-14T21:14:49.620Z,24.87
2017-11-14T21:17:22.119Z,24.00
2017-11-14T21:19:55.249Z,21.90
2017-11-14T21:22:26.725Z,22.67
2017-11-14T21:24:58.518Z,23.70
2017-11-14T21:27:30.861Z,20.20
2017-11-14T21:30:02.086Z,23.67
2017-11-14T21:32:34.713Z,22.10
2017-11-14T21:35:07.263Z,32.43
2017-11-14T21:37:40.093Z,26.67
2017-11-14T21:40:08.435Z,23.23
2017-11-14T21:42:37.028Z,21.63
2017-11-14T21:45:05.396Z,25.43
2017-11-14T21:47:33.729Z,25.37
2017-11-14T21:50:02.387Z,26.47
2017-11-14T21:52:30.778Z,25.00
2017-11-14T21:54:59.139Z,23.63
2017-11-14T21:57:27.509Z,24.47
2017-11-14T21:59:56.006Z,29.70
2017-11-14T22:02:24.682Z,26.37
2017-11-14T22:04:53.558Z,30.03
2017-11-14T22:07:22.091Z,25.77
2017-11-14T22:09:51.338Z,23.00
2017-11-14T22:12:20.196Z,30.03
2017-11-14T22:14:48.554Z,23.67
2017-11-14T22:17:16.931Z,28.27
2017-11-14T22:19:45.460Z,26.13
2017-11-14T22:22:13.839Z,25.87
2017-11-14T22:24:42.519Z,26.40
2017-11-14T22:27:10.891Z,26.77
2017-11-14T22:29:39.232Z,27.67
2017-11-14T22:32:08.569Z,28.47
2017-11-14T22:34:36.939Z,25.90
2017-11-14T22:37:05.152Z,26.73
2017-11-14T22:39:33.501Z,34.33
2017-11-14T22:42:01.658Z,32.93
2017-11-14T22:44:30.760Z,33.73
2017-11-14T22:46:59.327Z,32.87
2017-11-14T22:49:27.824Z,29.67
2017-11-14T22:51:56.170Z,29.20
2017-11-14T22:54:24.597Z,28.07
2017-11-14T22:56:53.241Z,28.17
2017-11-14T22:59:21.581Z,29.73
2017-11-14T23:01:50.682Z,33.20
2017-11-14T23:04:19.004Z,27.47
2017-11-14T23:06:47.359Z,33.50
2017-11-14T23:09:15.735Z,30.87
2017-11-14T23:11:44.062Z,24.97
2017-11-14T23:14:12.384Z,39.23
2017-11-14T23:16:40.717Z,31.23
2017-11-14T23:19:09.076Z,36.47
2017-11-14T23:21:37.596Z,28.37
2017-11-14T23:24:05.998Z,27.83
2017-11-14T23:26:34.367Z,27.43
2017-11-14T23:29:02.695Z,27.53
2017-11-14T23:31:31.228Z,28.40
2017-11-14T23:33:59.558Z,27.70
2017-11-14T23:36:28.646Z,38.03
2017-11-14T23:38:59.653Z,35.37
2017-11-14T23:41:28.246Z,29.30
2017-11-14T23:43:56.685Z,32.60
2017-11-14T23:46:25.020Z,32.20
2017-11-14T23:48:53.365Z,30.40
2017-11-14T23:51:21.697Z,31.47
2017-11-14T23:53:49.981Z,33.57
2017-11-14T23:56:18.358Z,35.10
2017-11-14T23:58:46.676Z,36.37
